<?xml version="1.0" encoding="UTF-8" standalone="no" ?>
<gpx xmlns="http://www.topografix.com/GPX/1/1" xmlns:xsi="http://www.w3.org/2001/XMLSchema-instance" xsi:schemaLocation="http://www.topografix.com/GPX/1/1 http://www.topografix.com/GPX/1/1/gpx.xsd" version="1.1" creator="VisuGPX - https://www.visugpx.com">
  <metadata>
    <name>Raccourci Niffru</name>
    <desc><![CDATA[Raccourci Niffru]]></desc>
  </metadata>
  <trk>
    <name><![CDATA[Raccourci Niffru-trace Jean-Jo]]></name>
    <desc><![CDATA[comment ...
Type : [nouvelles]]]></desc>
    <extensions>
      <line xmlns="http://www.topografix.com/GPX/gpx_style/0/2">
        <color>0000FF</color>
        <width>4</width>
      </line>
    </extensions>
    <trkseg>
      <trkpt lat="41.74785" lon="9.29256">
        <ele>268.4</ele>
        <time>2024-06-01T11:25:19Z</time>
      </trkpt>
      <trkpt lat="41.74792" lon="9.29253">
        <ele>269.5</ele>
      </trkpt>
      <trkpt lat="41.74799" lon="9.29244">
        <ele>269</ele>
        <time>2024-06-01T11:25:07Z</time>
      </trkpt>
      <trkpt lat="41.74811" lon="9.29228">
        <ele>270</ele>
        <time>2024-06-01T11:24:38Z</time>
      </trkpt>
      <trkpt lat="41.74814" lon="9.29215">
        <ele>271</ele>
        <time>2024-06-01T11:24:03Z</time>
      </trkpt>
      <trkpt lat="41.74824" lon="9.29213">
        <ele>272</ele>
        <time>2024-06-01T11:22:22Z</time>
      </trkpt>
      <trkpt lat="41.74826" lon="9.29203">
        <ele>272</ele>
        <time>2024-06-01T11:21:23Z</time>
      </trkpt>
      <trkpt lat="41.74833" lon="9.29202">
        <ele>274</ele>
        <time>2024-06-01T11:21:01Z</time>
      </trkpt>
      <trkpt lat="41.74841" lon="9.29204">
        <ele>276</ele>
        <time>2024-06-01T11:19:08Z</time>
      </trkpt>
      <trkpt lat="41.74851" lon="9.29207">
        <ele>279</ele>
        <time>2024-06-01T11:18:09Z</time>
      </trkpt>
      <trkpt lat="41.7487" lon="9.2921">
        <ele>286</ele>
        <time>2024-06-01T11:16:48Z</time>
      </trkpt>
      <trkpt lat="41.74879" lon="9.29214">
        <ele>288</ele>
        <time>2024-06-01T11:16:00Z</time>
      </trkpt>
      <trkpt lat="41.74882" lon="9.29203">
        <ele>288</ele>
        <time>2024-06-01T11:11:29Z</time>
      </trkpt>
      <trkpt lat="41.74892" lon="9.29205">
        <ele>289</ele>
        <time>2024-06-01T11:08:37Z</time>
      </trkpt>
      <trkpt lat="41.74903" lon="9.29209">
        <ele>291</ele>
        <time>2024-06-01T11:07:46Z</time>
      </trkpt>
      <trkpt lat="41.74912" lon="9.29212">
        <ele>296</ele>
        <time>2024-06-01T11:06:40Z</time>
      </trkpt>
      <trkpt lat="41.7492" lon="9.29216">
        <ele>298</ele>
        <time>2024-06-01T11:06:01Z</time>
      </trkpt>
      <trkpt lat="41.74927" lon="9.2922">
        <ele>298</ele>
        <time>2024-06-01T11:02:34Z</time>
      </trkpt>
      <trkpt lat="41.74939" lon="9.29221">
        <ele>303</ele>
        <time>2024-06-01T10:57:31Z</time>
      </trkpt>
      <trkpt lat="41.74949" lon="9.29224">
        <ele>308</ele>
        <time>2024-06-01T10:54:56Z</time>
      </trkpt>
      <trkpt lat="41.74955" lon="9.29217">
        <ele>311</ele>
        <time>2024-06-01T10:53:57Z</time>
      </trkpt>
      <trkpt lat="41.74963" lon="9.29218">
        <ele>313</ele>
        <time>2024-06-01T10:52:53Z</time>
      </trkpt>
      <trkpt lat="41.74971" lon="9.29219">
        <ele>314</ele>
        <time>2024-06-01T10:51:59Z</time>
      </trkpt>
      <trkpt lat="41.7498" lon="9.29211">
        <ele>317</ele>
        <time>2024-06-01T10:50:55Z</time>
      </trkpt>
      <trkpt lat="41.74989" lon="9.29209">
        <ele>319</ele>
        <time>2024-06-01T10:49:55Z</time>
      </trkpt>
      <trkpt lat="41.74996" lon="9.29202">
        <ele>322</ele>
        <time>2024-06-01T10:48:58Z</time>
      </trkpt>
      <trkpt lat="41.75005" lon="9.29199">
        <ele>324</ele>
        <time>2024-06-01T10:47:25Z</time>
      </trkpt>
      <trkpt lat="41.75016" lon="9.29201">
        <ele>328</ele>
        <time>2024-06-01T10:46:25Z</time>
      </trkpt>
      <trkpt lat="41.75026" lon="9.29199">
        <ele>330</ele>
        <time>2024-06-01T10:45:31Z</time>
      </trkpt>
      <trkpt lat="41.75035" lon="9.29202">
        <ele>332</ele>
        <time>2024-06-01T10:44:16Z</time>
      </trkpt>
      <trkpt lat="41.75045" lon="9.29204">
        <ele>334</ele>
        <time>2024-06-01T10:43:12Z</time>
      </trkpt>
      <trkpt lat="41.75054" lon="9.29209">
        <ele>336</ele>
        <time>2024-06-01T10:42:19Z</time>
      </trkpt>
      <trkpt lat="41.75064" lon="9.29212">
        <ele>338</ele>
        <time>2024-06-01T10:41:20Z</time>
      </trkpt>
      <trkpt lat="41.75075" lon="9.29216">
        <ele>339</ele>
        <time>2024-06-01T10:40:28Z</time>
      </trkpt>
      <trkpt lat="41.75081" lon="9.29223">
        <ele>342</ele>
        <time>2024-06-01T10:39:52Z</time>
      </trkpt>
      <trkpt lat="41.75099" lon="9.29235">
        <ele>345</ele>
        <time>2024-06-01T10:39:19Z</time>
      </trkpt>
      <trkpt lat="41.75108" lon="9.29244">
        <ele>349</ele>
        <time>2024-06-01T10:38:58Z</time>
      </trkpt>
      <trkpt lat="41.75122" lon="9.2925">
        <ele>350</ele>
        <time>2024-06-01T10:38:37Z</time>
      </trkpt>
      <trkpt lat="41.75129" lon="9.29262">
        <ele>352</ele>
        <time>2024-06-01T10:38:03Z</time>
      </trkpt>
      <trkpt lat="41.75139" lon="9.29266">
        <ele>352</ele>
        <time>2024-06-01T10:37:33Z</time>
      </trkpt>
      <trkpt lat="41.75147" lon="9.29275">
        <ele>354</ele>
        <time>2024-06-01T10:36:58Z</time>
      </trkpt>
      <trkpt lat="41.75155" lon="9.29283">
        <ele>357</ele>
        <time>2024-06-01T10:35:10Z</time>
      </trkpt>
      <trkpt lat="41.75159" lon="9.29295">
        <ele>362</ele>
        <time>2024-06-01T10:33:18Z</time>
      </trkpt>
      <trkpt lat="41.75163" lon="9.29304">
        <ele>365</ele>
        <time>2024-06-01T10:33:00Z</time>
      </trkpt>
      <trkpt lat="41.75176" lon="9.29327">
        <ele>376.5</ele>
        <time>2024-06-01T10:32:45Z</time>
      </trkpt>
    </trkseg>
  </trk>
</gpx>